Terminal Aerodrome Forecast
Issued by NWS

Home | Current Version | Previous Version | Text Only | Print | Product List | Glossary On
Versions: 1 2 3 4 5 6 7 8 9 10 11 12 13 14 15 16 17 18 19 20 21 22
000
FTUS41 KPHI 012325
TAFMIV
TAF
KMIV 012325Z 0200/0224 04004KT 2SM -DZ BR OVC004
     FM020400 08003KT 1SM -SHRADZ BR OVC002
     FM021400 08004KT 3SM -SHRA BR OVC004
     FM021800 18005KT 5SM BR OVC007
     FM022200 18005KT P6SM OVC015=

USA.gov is the U.S. government's official web portal to all federal, state and local government web resources and services.